Flight Track Log - Related Links

Times and Time Zones

All times are in EDT time to prevent confusion due to time zone crossing. See the N69704 flight status page for this flight to view local times or setup timezone preferences in your user account.

Time Position Orientation Groundspeed Altitude Reporting Facility
EDT Latitude Longitude Course Direction KTS MPH feet Rate Location/Type
Wed 07:41:00 PM 32.5021 -95.1135 52° Northeast  Level FlightAware Approximate
Wed 07:42:00 PM 32.5317 -95.0691 52° Northeast  Level FlightAware Approximate
Wed 07:43:00 PM 32.5585 -95.0221 56° Northeast  Level FlightAware Approximate
Wed 07:44:00 PM 32.5851 -94.9751 56° Northeast  Level FlightAware Approximate
Wed 07:45:00 PM 32.6117 -94.9279 56° Northeast  Level FlightAware Approximate
Wed 07:46:00 PM 32.6383 -94.8808 56° Northeast  Level FlightAware Approximate
Wed 07:47:00 PM 32.6648 -94.8336 56° Northeast  Level FlightAware Approximate
Wed 07:48:00 PM 32.6914 -94.7864 56° Northeast  Level FlightAware Approximate
Wed 07:49:00 PM 32.7179 -94.7392 56° Northeast  Level FlightAware Approximate
Wed 07:49:55 PM 32.6500 -94.8081 56° Northeast 187 215 8,900  Level Fort Worth Center
Wed 07:50:00 PM 32.7444 -94.6920 56° Northeast  Level FlightAware Approximate
Wed 07:50:55 PM 32.6781 -94.7628 54° Northeast 187 215 8,900  Level Fort Worth Center
Wed 07:51:00 PM 32.7709 -94.6447 56° Northeast  Level FlightAware Approximate
Wed 07:51:55 PM 32.7147 -94.7172 46° Northeast 187 215 8,900  Level Fort Worth Center
Wed 07:52:00 PM 32.7974 -94.5974 56° Northeast  Level FlightAware Approximate
Wed 07:52:55 PM 32.7492 -94.6717 48° Northeast 182 209 8,900  Level Fort Worth Center
Wed 07:53:00 PM 32.8238 -94.5500 56° Northeast  Level FlightAware Approximate
Wed 07:53:55 PM 32.7753 -94.6189 60° Northeast 182 209 8,900  Level Fort Worth Center
Wed 07:54:00 PM 32.8502 -94.5027 56° Northeast  Level FlightAware Approximate
Wed 07:54:55 PM 32.7969 -94.5614 66° East 182 209 8,800  Level Fort Worth Center
Wed 07:55:00 PM 32.8766 -94.4553 56° Northeast  Level FlightAware Approximate
Wed 07:55:55 PM 32.8228 -94.5064 61° Northeast 182 209 8,800  Level Fort Worth Center
Wed 07:56:55 PM 32.8508 -94.4533 58° Northeast 182 209 8,800  Level Fort Worth Center
Wed 07:57:55 PM 32.8786 -94.4006 58° Northeast 182 209 8,800 50 Level Fort Worth Center
Wed 07:58:55 PM 32.8983 -94.3431 68° East 182 209 8,900 50 Climbing Fort Worth Center
Wed 07:59:55 PM 32.9261 -94.2900 58° Northeast 177 204 8,900  Level Fort Worth Center
Wed 08:00:55 PM 32.9650 -94.2542 38° Northeast 177 204 8,900  Level Fort Worth Center
Wed 08:01:55 PM 33.0017 -94.2181 40° Northeast 171 197 8,900 -50 Level Fort Worth Center
Wed 08:02:55 PM 33.0317 -94.1675 55° Northeast 176 203 8,800 -50 Descending Fort Worth Center
Wed 08:03:55 PM 33.0636 -94.1192 52° Northeast 181 208 8,800  Level Fort Worth Center
Wed 08:04:55 PM 33.0981 -94.0758 46° Northeast 181 208 8,800  Level Fort Worth Center
Wed 08:05:55 PM 33.1281 -94.0275 53° Northeast 181 208 8,800  Level Fort Worth Center
Wed 08:06:55 PM 33.1494 -93.9697 66° East 181 208 8,800 -50 Level Fort Worth Center
Wed 08:07:55 PM 33.1708 -93.9117 66° East 181 208 8,700  Descending Fort Worth Center
Wed 08:08:55 PM 33.2008 -93.8658 52° Northeast 181 208 8,800 100 Climbing Fort Worth Center
Wed 08:09:55 PM 33.2311 -93.8250 48° Northeast 170 196 8,900 100 Climbing Fort Worth Center
Wed 08:10:55 PM 33.2611 -93.7792 52° Northeast 165 190 9,000 50 Climbing Fort Worth Center
Wed 08:11:55 PM 33.2889 -93.7331 54° Northeast 165 190 9,000  Level Fort Worth Center
Wed 08:12:55 PM 33.3186 -93.6847 54° Northeast 171 197 9,000  Level Fort Worth Center
Wed 08:13:55 PM 33.3464 -93.6314 58° Northeast 176 203 9,000 -50 Level Fort Worth Center
Wed 08:14:55 PM 33.3783 -93.5828 52° Northeast 176 203 8,900  Descending Fort Worth Center
Wed 08:15:55 PM 33.4103 -93.5342 52° Northeast 176 203 9,000 50 Climbing Fort Worth Center
Wed 08:16:55 PM 33.4356 -93.4806 61° Northeast 176 203 9,000  Level Fort Worth Center
Wed 08:17:55 PM 33.4633 -93.4347 54° Northeast 176 203 9,000  Level Fort Worth Center
Wed 08:18:55 PM 33.4931 -93.3833 55° Northeast 176 203 9,000  Level Fort Worth Center
Wed 08:19:55 PM 33.5206 -93.3322 57° Northeast 176 203 9,000  Level Fort Worth Center
Wed 08:20:55 PM 33.5439 -93.2789 62° Northeast 176 203 9,000  Level Fort Worth Center
Wed 08:22:33 PM 33.5894 -93.2000 55° Northeast 187 215 9,000  Level Memphis Center
Wed 08:23:33 PM 33.6178 -93.1486 56° Northeast 187 215 9,000  Level Memphis Center
Wed 08:24:33 PM 33.6461 -93.0944 58° Northeast 187 215 9,000  Level Memphis Center
Wed 08:25:33 PM 33.6742 -93.0481 54° Northeast 187 215 9,000  Level Memphis Center
Wed 08:26:33 PM 33.7044 -92.9989 53° Northeast 187 215 9,000  Level Memphis Center
Wed 08:27:33 PM 33.7308 -92.9422 61° Northeast 187 215 9,000  Level Memphis Center
Wed 08:28:33 PM 33.7589 -92.8908 57° Northeast 187 215 9,000  Level Memphis Center
Wed 08:29:33 PM 33.7850 -92.8389 59° Northeast 182 209 9,000  Level Memphis Center
Wed 08:30:33 PM 33.8131 -92.7897 56° Northeast 182 209 9,000 50 Level Memphis Center
Wed 08:31:33 PM 33.8392 -92.7356 60° Northeast 182 209 9,100 50 Climbing Memphis Center
Wed 08:32:33 PM 33.8653 -92.6836 59° Northeast 182 209 9,100  Level Memphis Center
Wed 08:33:33 PM 33.8933 -92.6294 58° Northeast 177 204 9,100 -50 Level Memphis Center
Wed 08:34:33 PM 33.9172 -92.5775 61° Northeast 177 204 9,000 -100 Descending Memphis Center
Wed 08:35:33 PM 33.9494 -92.5281 52° Northeast 177 204 8,900  Descending Memphis Center
Wed 08:36:33 PM 33.9794 -92.4839 51° Northeast 177 204 9,000 50 Climbing Memphis Center
Wed 08:37:33 PM 34.0072 -92.4344 56° Northeast 177 204 9,000  Level Memphis Center
Wed 08:38:33 PM 34.0414 -92.3900 47° Northeast 172 198 9,000  Level Memphis Center
Wed 08:38:58 PM 34.0522 -92.3653 62° Northeast 176 203 9,000  Level Memphis Center
Wed 08:39:33 PM 34.0736 -92.3356 49° Northeast 172 198 9,000  Level Memphis Center
Wed 08:40:33 PM 34.1017 -92.2861 56° Northeast 177 204 9,000  Level Memphis Center
Wed 08:41:33 PM 34.1253 -92.2314 62° Northeast 177 204 9,000  Level Memphis Center
Wed 08:42:33 PM 34.1533 -92.1819 56° Northeast 177 204 9,000  Level Memphis Center
Wed 08:43:50 PM 34.1853 -92.1247 56° Northeast 174 200 9,000 -50 Level Memphis Center
Wed 08:44:33 PM 34.2067 -92.0850 57° Northeast 171 197 8,900  Descending Memphis Center
Wed 08:44:50 PM 34.2092 -92.0700 79° East 177 204 9,000  Climbing Memphis Center
Wed 08:45:33 PM 34.2325 -92.0328 53° Northeast 171 197 8,900 -98 Descending Memphis Center
Wed 08:45:51 PM 34.2347 -92.0228 75° East 180 207 8,900  Level Memphis Center
Wed 08:46:33 PM 34.2603 -91.9831 52° Northeast 171 197 8,900  Level Memphis Center
Wed 08:46:51 PM 34.2667 -91.9706 58° Northeast 176 203 8,900 100 Level Memphis Center
Wed 08:47:33 PM 34.2900 -91.9333 53° Northeast 166 191 9,000 179 Climbing Memphis Center
Wed 08:47:58 PM 34.2967 -91.9158 65° Northeast 177 204 9,100 100 Climbing Memphis Center
Wed 08:48:33 PM 34.3136 -91.8836 58° Northeast 178 205 9,100  Level Memphis Center
Wed 08:48:59 PM 34.3222 -91.8636 62° Northeast 182 209 9,100  Level Memphis Center
Wed 08:49:33 PM 34.3394 -91.8286 59° Northeast 188 216 9,100  Level Memphis Center
Wed 08:50:33 PM 34.3692 -91.7764 55° Northeast 193 222 9,100 -50 Level Memphis Center
Wed 08:51:33 PM 34.3950 -91.7189 61° Northeast 187 215 9,000  Descending Memphis Center
Wed 08:52:33 PM 34.4183 -91.6639 63° Northeast 182 209 9,100  Climbing Memphis Center
Wed 08:53:33 PM 34.4442 -91.6064 61° Northeast 177 204 9,000 -50 Descending Memphis Center
Wed 08:54:33 PM 34.4739 -91.5539 56° Northeast 182 209 9,000 -50 Level Memphis Center
Wed 08:55:33 PM 34.5033 -91.5039 54° Northeast 187 215 8,900 -50 Descending Memphis Center
Wed 08:56:33 PM 34.5247 -91.4561 61° Northeast 187 215 8,900 50 Level Memphis Center
Wed 08:57:33 PM 34.5544 -91.4061 54° Northeast 187 215 9,000 50 Climbing Memphis Center
Wed 08:58:33 PM 34.5778 -91.3536 62° Northeast 187 215 9,000  Level Memphis Center
Wed 08:59:33 PM 34.6053 -91.2983 59° Northeast 187 215 9,000  Level Memphis Center
Wed 09:00:33 PM 34.6369 -91.2506 51° Northeast 182 209 9,000 -150 Level Memphis Center
Wed 09:01:33 PM 34.6686 -91.2056 49° Northeast 182 209 8,700 -300 Descending Memphis Center
Wed 09:02:33 PM 34.7003 -91.1453 57° Northeast 187 215 8,400 -350 Descending Memphis Center
Wed 09:03:33 PM 34.7297 -91.0875 58° Northeast 187 215 8,000 -400 Descending Memphis Center
Wed 09:04:33 PM 34.7594 -91.0344 56° Northeast 187 215 7,600 -400 Descending Memphis Center
Wed 09:05:33 PM 34.7847 -90.9817 60° Northeast 187 215 7,200 -450 Descending Memphis Center
Wed 09:06:33 PM 34.8161 -90.9289 54° Northeast 187 215 6,700 -550 Descending Memphis Center
Wed 09:07:33 PM 34.8456 -90.8783 55° Northeast 187 215 6,100 -400 Descending Memphis Center
Wed 09:08:33 PM 34.8731 -90.8306 55° Northeast 179 206 5,900  Descending Memphis Center
Wed 09:09:33 PM 34.9044 -90.7825 51° Northeast 172 198 6,100 100 Climbing Memphis Center
Wed 09:10:33 PM 34.9256 -90.7394 59° Northeast 167 192 6,100 -50 Level Memphis Center
Wed 09:11:33 PM 34.9486 -90.6967 57° Northeast 167 192 6,000 -50 Descending Memphis Center
Wed 09:12:33 PM 34.9717 -90.6486 60° Northeast 167 192 6,000  Level Memphis Center
Wed 09:13:33 PM 34.9947 -90.6006 60° Northeast 162 186 6,000 -50 Level Memphis Center
Wed 09:14:33 PM 35.0197 -90.5522 58° Northeast 167 192 5,900 -50 Descending Memphis Center
Wed 09:15:33 PM 35.0406 -90.5067 61° Northeast 162 186 5,900 50 Level Memphis Center
Wed 09:16:33 PM 35.0658 -90.4586 57° Northeast 162 186 6,000 50 Climbing Memphis Center
Wed 09:17:33 PM 35.0886 -90.4053 62° Northeast 162 186 6,000  Level Memphis Center
Wed 09:18:33 PM 35.1117 -90.3544 61° Northeast 162 186 6,000  Level Memphis Center
Wed 09:19:33 PM 35.1325 -90.3089 61° Northeast 162 186 6,000 -50 Level Memphis Center
Wed 09:20:33 PM 35.1597 -90.2606 55° Northeast 162 186 5,900 -100 Descending Memphis Center
Wed 09:22:00 PM 35.1921 -90.1852 62° Northeast  Level FlightAware Approximate
Wed 09:29:00 PM 35.3500 -89.8667 58° Northeast  Level FlightAware Approximate
Wed 09:30:00 PM 35.3566 -89.8704 58° Northeast  Level Estimated
Wed 09:31:00 PM 35.3566 -89.8704 58° Northeast  Level Estimated
Wed 09:32:00 PM 35.3566 -89.8704 58° Northeast  Level Estimated
Wed 09:33:00 PM 35.3566 -89.8704 58° Northeast  Level Estimated
Wed 09:34:00 PM 35.3566 -89.8704 58° Northeast  Level Estimated
Wed 09:35:00 PM 35.3566 -89.8704 58° Northeast  Level Estimated
Wed 09:36:00 PM 35.3566 -89.8704 58° Northeast  Level Estimated
Wed 09:37:00 PM 35.3566 -89.8704 58° Northeast  Level Estimated
Wed 09:38:00 PM 35.3566 -89.8704 58° Northeast  Level Estimated

Login

Don't have an account? Register now (free) for customized features, flight alerts, and more!